LRH weather

La Rochelle-Île de Ré Airport
La Rochelle/Île de Ré, Nouvelle-Aquitaine, France

Public forecast

Using degrees Celsius for public forecast. Weather courtesy of forecast.io.

Current aviation weather report (METAR) for La Rochelle-Île de Ré Airport

Retrieved 2020/08/06 00:30 UTC (0 seconds ago):

LFBH 060030Z AUTO 04007KT CAVOK 17/13 Q1016 NOSIG

Aviation forecast (TAF) for La Rochelle-Île de Ré Airport

Retrieved 2020-08-06 00:21 UTC (4 minutes ago):

TAF LFBH 052300Z 0600/0624 01010KT CAVOK BECMG 0615/0617 31010KT